Time;durP1;ratioP1;P1;durP2;ratioP2;P2;SDS_P1;SDS_P2;PMS_P1;PMS_P2;Temp;Humidity;BMP_temperature;BMP_pressure;BME280_temperature;BME280_humidity;BME280_pressure;Samples;Min_cycle;Max_cycle;Signal;HPM_P1;HPM_P2
2021/10/19 00:00:09;;;;;;;18.58;10.52;;;;;;;;;;5064923;28;20154;-58
2021/10/19 00:02:36;;;;;;;20.23;10.90;;;;;;;;;;5065993;28;20102;-58
2021/10/19 00:05:04;;;;;;;16.70;10.15;;;;;;;;;;5066213;28;20062;-58
2021/10/19 00:07:30;;;;;;;21.23;10.52;;;;;;;;;;5063535;28;20044;-58
2021/10/19 00:09:55;;;;;;;21.38;11.60;;;;;;;;;;5066250;28;20428;-58
2021/10/19 00:12:21;;;;;;;24.58;11.45;;;;;;;;;;5066831;28;20232;-59
2021/10/19 00:14:46;;;;;;;21.90;11.13;;;;;;;;;;5070194;28;20403;-58
2021/10/19 00:17:12;;;;;;;17.65;10.35;;;;;;;;;;5068129;28;20398;-58
2021/10/19 00:19:37;;;;;;;14.13;7.82;;;;;;;;;;5066964;28;20031;-58
2021/10/19 00:22:04;;;;;;;14.30;8.10;;;;;;;;;;5068609;28;20024;-57
2021/10/19 00:24:29;;;;;;;18.02;8.07;;;;;;;;;;5069137;28;20036;-58
2021/10/19 00:26:54;;;;;;;16.58;8.25;;;;;;;;;;5066963;28;20043;-58
2021/10/19 00:29:20;;;;;;;15.10;8.43;;;;;;;;;;5069286;28;20089;-58
2021/10/19 00:31:45;;;;;;;12.70;7.65;;;;;;;;;;5070890;28;20032;-58
2021/10/19 00:34:11;;;;;;;14.45;8.48;;;;;;;;;;5072768;28;20047;-57
2021/10/19 00:36:36;;;;;;;13.90;7.90;;;;;;;;;;5071663;28;20051;-57
2021/10/19 00:39:02;;;;;;;18.40;9.50;;;;;;;;;;5070676;28;20092;-58
2021/10/19 00:41:29;;;;;;;17.65;9.75;;;;;;;;;;5069854;28;20059;-58
2021/10/19 00:43:55;;;;;;;15.32;8.50;;;;;;;;;;5079627;28;20058;-58
2021/10/19 00:46:20;;;;;;;15.85;8.70;;;;;;;;;;5071643;28;20028;-59
2021/10/19 00:48:46;;;;;;;18.35;9.15;;;;;;;;;;5068383;28;20498;-58
2021/10/19 00:51:14;;;;;;;16.75;7.90;;;;;;;;;;5067997;28;20025;-58
2021/10/19 00:53:40;;;;;;;12.63;7.15;;;;;;;;;;5067855;28;20039;-58
2021/10/19 00:56:06;;;;;;;11.52;6.95;;;;;;;;;;5069782;28;20032;-58
2021/10/19 00:58:32;;;;;;;12.60;6.43;;;;;;;;;;5066991;28;20036;-59
2021/10/19 01:00:57;;;;;;;11.48;6.93;;;;;;;;;;5071105;28;20036;-58
2021/10/19 01:03:23;;;;;;;11.20;6.55;;;;;;;;;;5068853;28;20406;-59
2021/10/19 01:05:49;;;;;;;11.68;6.70;;;;;;;;;;5069849;28;20089;-58
2021/10/19 01:08:14;;;;;;;10.40;6.25;;;;;;;;;;5064989;28;20501;-57
2021/10/19 01:10:39;;;;;;;11.70;6.15;;;;;;;;;;5070755;28;20136;-58
2021/10/19 01:13:05;;;;;;;12.13;6.50;;;;;;;;;;5070431;28;20429;-58
2021/10/19 01:15:36;;;;;;;14.52;7.82;;;;;;;;;;5070156;28;20409;-58
2021/10/19 01:18:01;;;;;;;16.38;7.93;;;;;;;;;;5071101;28;20028;-58
2021/10/19 01:20:34;;;;;;;14.68;8.05;;;;;;;;;;5066726;28;20038;-58
2021/10/19 01:23:01;;;;;;;14.63;8.18;;;;;;;;;;5075359;28;20036;-58
2021/10/19 01:25:29;;;;;;;15.70;8.45;;;;;;;;;;5067979;28;20021;-58
2021/10/19 01:27:56;;;;;;;15.93;8.70;;;;;;;;;;5071005;28;20063;-58
2021/10/19 01:30:22;;;;;;;13.50;7.90;;;;;;;;;;5069143;28;20032;-58
2021/10/19 01:32:48;;;;;;;13.02;7.72;;;;;;;;;;5070273;28;20052;-58
2021/10/19 01:35:14;;;;;;;12.30;6.35;;;;;;;;;;5069264;28;20328;-57
2021/10/19 01:37:41;;;;;;;11.15;6.70;;;;;;;;;;5065953;28;20044;-58
2021/10/19 01:40:09;;;;;;;15.82;7.40;;;;;;;;;;5073435;28;20020;-58
2021/10/19 01:42:35;;;;;;;14.70;6.93;;;;;;;;;;5069347;28;20028;-58
2021/10/19 01:45:01;;;;;;;12.95;6.85;;;;;;;;;;5073418;28;20028;-57
2021/10/19 01:47:28;;;;;;;13.23;6.50;;;;;;;;;;5069925;28;20115;-57
2021/10/19 01:49:53;;;;;;;11.35;6.70;;;;;;;;;;5066101;28;20036;-58
2021/10/19 01:52:18;;;;;;;11.85;6.38;;;;;;;;;;5068210;28;20032;-58
2021/10/19 01:54:44;;;;;;;13.80;7.43;;;;;;;;;;5068175;28;20032;-58
2021/10/19 01:57:09;;;;;;;12.63;7.13;;;;;;;;;;5071324;28;20032;-58
2021/10/19 01:59:35;;;;;;;14.90;8.25;;;;;;;;;;5069840;28;20203;-58
2021/10/19 02:02:00;;;;;;;13.30;8.25;;;;;;;;;;5069865;28;20027;-57
2021/10/19 02:04:25;;;;;;;18.80;10.18;;;;;;;;;;5065128;28;20423;-58
2021/10/19 02:06:51;;;;;;;17.73;9.88;;;;;;;;;;5067090;28;20024;-57
2021/10/19 02:09:16;;;;;;;19.35;10.48;;;;;;;;;;5066132;28;20108;-57
2021/10/19 02:11:41;;;;;;;18.65;10.13;;;;;;;;;;5068996;28;20028;-58
2021/10/19 02:14:07;;;;;;;19.38;10.50;;;;;;;;;;5069989;28;20032;-58
2021/10/19 02:16:32;;;;;;;23.05;11.38;;;;;;;;;;5069855;28;20439;-58
2021/10/19 02:18:58;;;;;;;23.77;11.80;;;;;;;;;;5067321;28;20495;-58
2021/10/19 02:21:23;;;;;;;19.88;11.25;;;;;;;;;;5070198;28;20032;-58
2021/10/19 02:23:48;;;;;;;18.98;11.55;;;;;;;;;;5068278;28;20028;-58
2021/10/19 02:26:14;;;;;;;17.85;10.07;;;;;;;;;;5066696;28;20035;-57
2021/10/19 02:28:39;;;;;;;18.05;10.27;;;;;;;;;;5066839;28;20039;-58
2021/10/19 02:31:06;;;;;;;16.95;9.07;;;;;;;;;;5065817;28;20021;-58
2021/10/19 02:33:32;;;;;;;19.33;10.35;;;;;;;;;;5067445;28;20127;-59
2021/10/19 02:35:57;;;;;;;18.08;9.77;;;;;;;;;;5065822;28;20609;-58
2021/10/19 02:38:23;;;;;;;18.48;9.77;;;;;;;;;;5068099;28;20119;-58
2021/10/19 02:40:48;;;;;;;16.98;9.98;;;;;;;;;;5067816;28;20107;-58
2021/10/19 02:43:15;;;;;;;17.35;10.10;;;;;;;;;;5064826;28;20381;-58
2021/10/19 02:45:40;;;;;;;18.83;11.32;;;;;;;;;;5066713;28;20498;-57
2021/10/19 02:48:06;;;;;;;20.17;11.25;;;;;;;;;;5070273;28;20035;-57
2021/10/19 02:50:31;;;;;;;22.40;11.82;;;;;;;;;;5066577;28;20036;-58
2021/10/19 02:52:57;;;;;;;21.50;11.85;;;;;;;;;;5069632;28;20031;-58
2021/10/19 02:55:23;;;;;;;22.50;11.38;;;;;;;;;;5067530;28;20190;-59
2021/10/19 02:57:48;;;;;;;24.08;12.88;;;;;;;;;;5066844;28;20024;-58
2021/10/19 03:00:15;;;;;;;25.95;13.98;;;;;;;;;;5064690;28;20111;-58
2021/10/19 03:02:40;;;;;;;19.05;11.13;;;;;;;;;;5070642;28;20032;-58
2021/10/19 03:05:06;;;;;;;21.45;11.13;;;;;;;;;;5068435;28;20716;-58
2021/10/19 03:07:31;;;;;;;22.48;11.95;;;;;;;;;;5066353;28;20039;-58
2021/10/19 03:09:57;;;;;;;20.63;11.80;;;;;;;;;;5065855;28;20445;-58
2021/10/19 03:12:22;;;;;;;19.60;11.27;;;;;;;;;;5066466;28;20032;-58
2021/10/19 03:14:48;;;;;;;20.83;12.02;;;;;;;;;;5064797;28;20497;-58
2021/10/19 03:17:13;;;;;;;20.27;11.32;;;;;;;;;;5069925;28;20506;-58
2021/10/19 03:19:38;;;;;;;25.05;12.20;;;;;;;;;;5069173;28;20332;-58
2021/10/19 03:22:04;;;;;;;22.20;12.15;;;;;;;;;;5069441;28;20052;-58
2021/10/19 03:24:29;;;;;;;20.95;11.85;;;;;;;;;;5067524;28;20032;-57
2021/10/19 03:26:55;;;;;;;20.42;11.25;;;;;;;;;;5072761;28;20032;-58
2021/10/19 03:29:21;;;;;;;24.92;11.68;;;;;;;;;;5065994;28;20098;-58
2021/10/19 03:31:47;;;;;;;22.65;12.48;;;;;;;;;;5067485;28;20027;-58
2021/10/19 03:34:13;;;;;;;24.75;14.30;;;;;;;;;;5068884;28;20032;-57
2021/10/19 03:36:38;;;;;;;28.40;14.25;;;;;;;;;;5065229;28;20029;-58
2021/10/19 03:39:04;;;;;;;26.13;14.07;;;;;;;;;;5048326;28;20033;-58
2021/10/19 03:41:29;;;;;;;27.70;13.85;;;;;;;;;;5068394;28;20038;-58
2021/10/19 03:43:55;;;;;;;26.08;13.88;;;;;;;;;;5066806;28;20039;-58
2021/10/19 03:46:20;;;;;;;24.60;13.63;;;;;;;;;;5067299;28;20121;-59
2021/10/19 03:48:45;;;;;;;22.90;12.93;;;;;;;;;;5070909;28;20036;-58
2021/10/19 03:51:11;;;;;;;22.55;12.63;;;;;;;;;;5069464;28;20107;-57
2021/10/19 03:53:37;;;;;;;22.48;12.38;;;;;;;;;;5066047;28;20544;-58
2021/10/19 03:56:04;;;;;;;25.83;13.02;;;;;;;;;;5067377;28;20404;-58
2021/10/19 03:58:29;;;;;;;22.55;12.63;;;;;;;;;;5063002;28;20510;-58
2021/10/19 04:00:55;;;;;;;21.30;12.45;;;;;;;;;;5064040;28;20036;-58
2021/10/19 04:03:20;;;;;;;22.40;12.43;;;;;;;;;;5067383;28;20025;-58
2021/10/19 04:05:46;;;;;;;20.20;11.80;;;;;;;;;;5070796;28;20028;-58
2021/10/19 04:08:12;;;;;;;24.42;12.20;;;;;;;;;;5069410;28;20368;-58
2021/10/19 04:10:37;;;;;;;19.88;11.10;;;;;;;;;;5069358;28;20029;-58
2021/10/19 04:13:03;;;;;;;23.13;11.40;;;;;;;;;;5070606;28;20035;-58
2021/10/19 04:15:28;;;;;;;20.10;11.75;;;;;;;;;;5072366;28;20113;-57
2021/10/19 04:17:54;;;;;;;20.50;12.38;;;;;;;;;;5069830;28;20032;-57
2021/10/19 04:20:19;;;;;;;29.95;16.13;;;;;;;;;;5071414;28;20390;-57
2021/10/19 04:22:45;;;;;;;31.70;15.38;;;;;;;;;;5069496;28;20440;-57
2021/10/19 04:25:13;;;;;;;25.63;14.38;;;;;;;;;;5075142;28;20021;-58
2021/10/19 04:27:38;;;;;;;24.38;13.52;;;;;;;;;;5069923;28;20033;-58
2021/10/19 04:30:05;;;;;;;24.70;14.05;;;;;;;;;;5073374;28;20043;-58
2021/10/19 04:32:30;;;;;;;30.20;15.40;;;;;;;;;;5071354;28;20435;-58
2021/10/19 04:34:56;;;;;;;27.02;13.93;;;;;;;;;;5070376;28;20065;-57
2021/10/19 04:37:21;;;;;;;22.30;12.68;;;;;;;;;;5073249;28;20042;-58
2021/10/19 04:39:47;;;;;;;23.65;12.98;;;;;;;;;;5072742;28;20032;-58
2021/10/19 04:42:12;;;;;;;23.17;13.60;;;;;;;;;;5070887;28;20058;-58
2021/10/19 04:44:38;;;;;;;25.13;14.63;;;;;;;;;;5067548;28;20454;-58
2021/10/19 04:47:03;;;;;;;26.27;14.88;;;;;;;;;;5076026;28;20028;-58
2021/10/19 04:49:29;;;;;;;24.45;14.52;;;;;;;;;;5069072;28;20044;-59
2021/10/19 04:51:54;;;;;;;23.55;14.07;;;;;;;;;;5069383;28;20031;-57
2021/10/19 04:54:19;;;;;;;23.55;13.18;;;;;;;;;;5068775;28;20036;-58
2021/10/19 04:56:45;;;;;;;22.15;13.65;;;;;;;;;;5069964;28;20175;-57
2021/10/19 04:59:10;;;;;;;23.40;13.93;;;;;;;;;;5073784;28;20115;-59
2021/10/19 05:01:36;;;;;;;29.77;15.50;;;;;;;;;;5068417;28;20505;-58
2021/10/19 05:04:01;;;;;;;24.77;14.40;;;;;;;;;;5070778;28;20055;-58
2021/10/19 05:06:26;;;;;;;31.00;17.10;;;;;;;;;;5070555;28;20074;-58
2021/10/19 05:08:52;;;;;;;24.65;13.65;;;;;;;;;;5071286;28;20036;-59
2021/10/19 05:11:17;;;;;;;22.25;12.75;;;;;;;;;;5070939;28;20083;-59
2021/10/19 05:13:43;;;;;;;25.77;14.98;;;;;;;;;;5068964;28;20385;-59
2021/10/19 05:16:08;;;;;;;25.70;14.10;;;;;;;;;;5068837;28;20033;-59
2021/10/19 05:18:34;;;;;;;26.52;13.40;;;;;;;;;;5072814;28;20031;-59
2021/10/19 05:21:00;;;;;;;23.45;12.98;;;;;;;;;;5065969;28;20081;-59
2021/10/19 05:23:26;;;;;;;19.35;12.15;;;;;;;;;;5070649;28;20071;-60
2021/10/19 05:25:52;;;;;;;20.92;12.82;;;;;;;;;;5072281;28;20056;-59
2021/10/19 05:28:17;;;;;;;18.20;11.70;;;;;;;;;;5070325;28;20127;-60
2021/10/19 05:30:43;;;;;;;19.63;12.13;;;;;;;;;;5070281;28;20394;-59
2021/10/19 05:33:08;;;;;;;23.75;11.82;;;;;;;;;;5069226;28;20505;-60
2021/10/19 05:35:34;;;;;;;20.90;12.70;;;;;;;;;;5068197;28;20116;-60
2021/10/19 05:38:00;;;;;;;20.00;12.55;;;;;;;;;;5066593;28;20028;-60
2021/10/19 05:40:26;;;;;;;22.30;13.00;;;;;;;;;;5070498;28;20028;-60
2021/10/19 05:42:52;;;;;;;30.48;15.90;;;;;;;;;;5069540;28;20032;-60
2021/10/19 05:45:17;;;;;;;31.50;17.60;;;;;;;;;;5069015;28;20510;-59
2021/10/19 05:47:45;;;;;;;31.08;17.75;;;;;;;;;;5068125;28;20024;-60
2021/10/19 05:50:13;;;;;;;35.63;17.30;;;;;;;;;;5070277;28;20021;-59
2021/10/19 05:52:39;;;;;;;25.33;15.15;;;;;;;;;;5068958;28;20507;-60
2021/10/19 05:55:05;;;;;;;32.42;18.60;;;;;;;;;;5069244;28;20032;-59
2021/10/19 05:57:30;;;;;;;31.50;16.88;;;;;;;;;;5066714;28;20611;-60
2021/10/19 05:59:56;;;;;;;17.95;10.05;;;;;;;;;;5068636;28;20391;-58
2021/10/19 06:02:21;;;;;;;16.10;9.30;;;;;;;;;;5069993;28;20060;-59
2021/10/19 06:04:47;;;;;;;23.50;13.45;;;;;;;;;;5069805;28;20046;-59
2021/10/19 06:07:12;;;;;;;32.22;14.70;;;;;;;;;;5064971;28;20143;-60
2021/10/19 06:09:37;;;;;;;24.85;13.52;;;;;;;;;;5064441;28;20457;-60
2021/10/19 06:12:03;;;;;;;23.38;13.18;;;;;;;;;;5066643;28;20487;-60
2021/10/19 06:14:29;;;;;;;22.40;13.18;;;;;;;;;;5065463;28;20040;-60
2021/10/19 06:16:54;;;;;;;20.95;11.70;;;;;;;;;;5071005;28;20054;-59
2021/10/19 06:19:20;;;;;;;21.98;12.77;;;;;;;;;;5070776;28;20432;-60
2021/10/19 06:21:46;;;;;;;17.42;10.48;;;;;;;;;;5069339;28;20108;-60
2021/10/19 06:24:11;;;;;;;19.30;11.13;;;;;;;;;;5066781;28;20398;-59
2021/10/19 06:26:37;;;;;;;18.33;10.88;;;;;;;;;;5070015;28;20024;-59
2021/10/19 06:29:05;;;;;;;20.30;12.27;;;;;;;;;;5065744;28;20017;-59
2021/10/19 06:31:31;;;;;;;28.42;14.20;;;;;;;;;;5070574;28;20032;-59
2021/10/19 06:33:56;;;;;;;24.15;12.77;;;;;;;;;;5070576;28;20086;-58
2021/10/19 06:36:22;;;;;;;21.40;12.45;;;;;;;;;;5066376;28;20025;-59
2021/10/19 06:38:47;;;;;;;19.20;11.38;;;;;;;;;;5070538;28;20089;-59
2021/10/19 06:41:13;;;;;;;18.98;11.18;;;;;;;;;;5070270;28;20024;-59
2021/10/19 06:43:38;;;;;;;20.83;12.15;;;;;;;;;;5069156;28;20453;-59
2021/10/19 06:46:04;;;;;;;19.02;11.73;;;;;;;;;;5070395;28;20036;-59
2021/10/19 06:48:29;;;;;;;21.15;11.75;;;;;;;;;;5067799;28;20027;-60
2021/10/19 06:50:55;;;;;;;26.30;14.45;;;;;;;;;;5070182;28;20071;-59
2021/10/19 06:53:20;;;;;;;26.13;15.65;;;;;;;;;;5076088;28;20132;-60
2021/10/19 06:55:46;;;;;;;28.40;17.50;;;;;;;;;;5068000;28;20036;-60
2021/10/19 06:58:11;;;;;;;34.35;18.40;;;;;;;;;;5067036;28;20402;-59
2021/10/19 07:00:37;;;;;;;32.33;17.70;;;;;;;;;;5066711;28;20410;-59
2021/10/19 07:03:03;;;;;;;29.95;16.70;;;;;;;;;;5072066;28;20024;-59
2021/10/19 07:05:28;;;;;;;27.13;15.57;;;;;;;;;;5068417;28;20024;-59
2021/10/19 07:07:54;;;;;;;25.92;15.27;;;;;;;;;;5069164;28;20028;-59
2021/10/19 07:10:20;;;;;;;21.10;14.00;;;;;;;;;;5067496;28;20050;-59
2021/10/19 07:12:46;;;;;;;19.85;12.98;;;;;;;;;;5068013;28;20447;-60
2021/10/19 07:15:12;;;;;;;21.23;12.77;;;;;;;;;;5067783;28;20039;-59
2021/10/19 07:17:38;;;;;;;24.73;14.55;;;;;;;;;;5067775;28;20025;-59
2021/10/19 07:20:06;;;;;;;37.08;17.67;;;;;;;;;;5067707;28;20497;-60
2021/10/19 07:22:31;;;;;;;34.83;18.23;;;;;;;;;;5069831;28;20036;-60
2021/10/19 07:24:58;;;;;;;36.65;17.45;;;;;;;;;;5072729;28;20441;-59
2021/10/19 07:27:23;;;;;;;30.95;16.85;;;;;;;;;;5069280;28;20067;-60
2021/10/19 07:29:48;;;;;;;39.40;19.35;;;;;;;;;;5070035;28;20028;-60
2021/10/19 07:32:14;;;;;;;36.03;17.65;;;;;;;;;;5068233;28;20055;-60
2021/10/19 07:34:41;;;;;;;29.60;14.65;;;;;;;;;;5072742;28;20033;-60
2021/10/19 07:37:06;;;;;;;19.85;11.25;;;;;;;;;;5067112;28;20032;-60
2021/10/19 07:39:31;;;;;;;16.98;9.52;;;;;;;;;;5067499;28;20024;-59
2021/10/19 07:41:57;;;;;;;14.45;9.50;;;;;;;;;;5066675;28;20032;-60
2021/10/19 07:44:23;;;;;;;17.55;10.05;;;;;;;;;;5067122;28;20028;-60
2021/10/19 07:46:51;;;;;;;16.00;10.40;;;;;;;;;;5070437;28;20059;-59
2021/10/19 07:49:18;;;;;;;20.83;12.57;;;;;;;;;;5066963;28;20475;-60
2021/10/19 07:51:44;;;;;;;20.42;12.10;;;;;;;;;;5074426;28;20034;-60
2021/10/19 07:54:10;;;;;;;20.10;12.55;;;;;;;;;;5063747;28;20386;-60
2021/10/19 07:56:35;;;;;;;21.60;13.25;;;;;;;;;;5067274;28;20086;-60
2021/10/19 07:59:05;;;;;;;27.05;15.90;;;;;;;;;;5065632;28;20119;-60
2021/10/19 08:01:30;;;;;;;31.17;17.88;;;;;;;;;;5070603;28;20032;-60
2021/10/19 08:03:56;;;;;;;31.63;18.77;;;;;;;;;;5065169;28;20029;-61
2021/10/19 08:06:21;;;;;;;43.33;20.77;;;;;;;;;;5067050;28;20092;-60
2021/10/19 08:08:47;;;;;;;31.63;15.18;;;;;;;;;;5066202;28;20033;-60
2021/10/19 08:11:13;;;;;;;27.65;14.85;;;;;;;;;;5072234;28;20025;-59
2021/10/19 08:13:38;;;;;;;23.67;13.68;;;;;;;;;;5066338;28;20044;-59
2021/10/19 08:16:04;;;;;;;23.15;12.73;;;;;;;;;;5070649;28;20024;-59
2021/10/19 08:18:29;;;;;;;21.92;12.60;;;;;;;;;;5066977;28;20139;-60
2021/10/19 08:20:55;;;;;;;29.45;17.17;;;;;;;;;;5069056;28;20107;-59
2021/10/19 08:23:21;;;;;;;28.48;16.02;;;;;;;;;;5069539;28;20059;-59
2021/10/19 08:25:47;;;;;;;31.20;17.80;;;;;;;;;;5066721;28;20502;-60
2021/10/19 08:28:23;;;;;;;27.27;15.05;;;;;;;;;;5064411;28;20337;-60
2021/10/19 08:30:51;;;;;;;25.88;14.85;;;;;;;;;;5066037;28;20092;-60
2021/10/19 08:33:17;;;;;;;22.85;13.63;;;;;;;;;;5067249;28;20032;-59
2021/10/19 08:35:42;;;;;;;20.15;12.80;;;;;;;;;;5068000;28;20016;-59
2021/10/19 08:38:10;;;;;;;18.52;11.55;;;;;;;;;;5066851;28;20027;-59
2021/10/19 08:40:35;;;;;;;18.30;12.35;;;;;;;;;;5065022;28;20089;-60
2021/10/19 08:43:01;;;;;;;18.20;11.05;;;;;;;;;;5068032;28;20029;-60
2021/10/19 08:45:30;;;;;;;19.40;11.70;;;;;;;;;;5070010;28;20032;-60
2021/10/19 08:47:56;;;;;;;18.08;9.98;;;;;;;;;;5064176;28;20029;-60
2021/10/19 08:50:23;;;;;;;17.48;10.27;;;;;;;;;;5067805;28;20097;-61
2021/10/19 08:52:49;;;;;;;26.13;12.57;;;;;;;;;;5066011;28;20050;-60
2021/10/19 08:55:15;;;;;;;25.48;13.30;;;;;;;;;;5070491;28;20447;-60
2021/10/19 08:57:40;;;;;;;31.60;13.80;;;;;;;;;;5068780;28;20056;-60
2021/10/19 09:00:09;;;;;;;22.42;11.40;;;;;;;;;;5068280;28;20024;-60
2021/10/19 09:02:45;;;;;;;18.63;10.07;;;;;;;;;;5069526;28;20533;-60
2021/10/19 09:05:15;;;;;;;16.13;8.98;;;;;;;;;;5071557;28;20040;-61
2021/10/19 09:08:01;;;;;;;11.60;7.35;;;;;;;;;;5068956;28;20105;-60
2021/10/19 09:10:30;;;;;;;25.33;11.57;;;;;;;;;;5069869;28;20135;-60
2021/10/19 09:13:06;;;;;;;35.50;15.30;;;;;;;;;;5069524;28;20024;-60
2021/10/19 09:15:39;;;;;;;40.70;16.52;;;;;;;;;;5069237;28;20286;-60
2021/10/19 09:18:09;;;;;;;25.88;11.38;;;;;;;;;;5070442;28;20032;-60
2021/10/19 09:20:37;;;;;;;16.15;8.57;;;;;;;;;;5071728;28;20054;-60
2021/10/19 09:23:04;;;;;;;17.38;9.13;;;;;;;;;;5069627;28;20039;-60
2021/10/19 09:25:34;;;;;;;14.52;8.75;;;;;;;;;;5069330;28;20457;-60
2021/10/19 09:28:02;;;;;;;13.20;7.25;;;;;;;;;;5071967;28;20094;-59
2021/10/19 09:30:37;;;;;;;16.52;8.70;;;;;;;;;;5067219;28;20032;-59
2021/10/19 09:33:06;;;;;;;13.05;7.07;;;;;;;;;;5067290;28;20023;-59
2021/10/19 09:35:31;;;;;;;10.43;6.13;;;;;;;;;;5069074;28;20032;-60
2021/10/19 09:37:59;;;;;;;11.27;6.07;;;;;;;;;;5066274;28;20271;-59
2021/10/19 09:40:45;;;;;;;11.77;5.93;;;;;;;;;;5068488;28;20032;-59
2021/10/19 09:43:14;;;;;;;8.57;4.95;;;;;;;;;;5069470;28;20119;-59
2021/10/19 09:45:42;;;;;;;6.25;4.15;;;;;;;;;;5067743;28;21690;-59
2021/10/19 09:48:12;;;;;;;6.80;4.40;;;;;;;;;;5067552;28;20364;-59
2021/10/19 09:50:38;;;;;;;7.43;3.83;;;;;;;;;;5074801;28;20055;-59
2021/10/19 09:53:05;;;;;;;6.25;3.60;;;;;;;;;;5071727;28;20359;-59
2021/10/19 09:55:32;;;;;;;5.35;3.50;;;;;;;;;;5058393;28;20529;-59
2021/10/19 09:57:58;;;;;;;6.22;3.55;;;;;;;;;;5069772;28;20021;-59
2021/10/19 10:00:26;;;;;;;5.72;3.63;;;;;;;;;;5069124;28;20036;-59
2021/10/19 10:02:52;;;;;;;6.90;4.30;;;;;;;;;;5069401;28;20024;-59
2021/10/19 10:05:17;;;;;;;9.48;3.92;;;;;;;;;;5068803;28;20106;-60
2021/10/19 10:07:45;;;;;;;4.68;3.47;;;;;;;;;;5067617;28;20041;-60
2021/10/19 10:10:17;;;;;;;4.82;3.22;;;;;;;;;;5072798;28;20139;-59
2021/10/19 10:12:49;;;;;;;7.60;3.85;;;;;;;;;;5065730;28;20032;-59
2021/10/19 10:15:23;;;;;;;5.57;3.17;;;;;;;;;;5069058;28;20035;-59
2021/10/19 10:17:50;;;;;;;8.85;3.05;;;;;;;;;;5066940;28;20016;-60
2021/10/19 10:20:15;;;;;;;7.53;3.42;;;;;;;;;;5066650;28;20020;-60
2021/10/19 10:22:45;;;;;;;4.60;2.92;;;;;;;;;;5068348;28;20131;-60
2021/10/19 10:25:14;;;;;;;4.82;3.28;;;;;;;;;;5068857;28;20561;-60
2021/10/19 10:27:41;;;;;;;5.47;3.03;;;;;;;;;;5068485;28;20036;-60
2021/10/19 10:30:18;;;;;;;4.20;2.55;;;;;;;;;;5068364;28;20032;-60
2021/10/19 10:32:43;;;;;;;4.70;2.38;;;;;;;;;;5068178;28;20020;-60
2021/10/19 10:35:12;;;;;;;4.45;2.67;;;;;;;;;;5064620;28;20043;-61
2021/10/19 10:37:56;;;;;;;3.60;2.10;;;;;;;;;;5064831;28;20360;-60
2021/10/19 10:40:38;;;;;;;3.88;2.25;;;;;;;;;;5067392;28;20024;-60
2021/10/19 10:43:17;;;;;;;3.30;2.20;;;;;;;;;;5068502;28;20024;-60
2021/10/19 10:45:42;;;;;;;3.83;2.00;;;;;;;;;;5083737;28;20035;-60
2021/10/19 10:48:08;;;;;;;3.63;2.33;;;;;;;;;;5065871;28;20036;-60
2021/10/19 10:50:36;;;;;;;2.83;1.75;;;;;;;;;;5066576;28;20077;-59
2021/10/19 10:53:11;;;;;;;3.30;1.63;;;;;;;;;;5068450;28;20098;-60
2021/10/19 10:55:47;;;;;;;3.53;2.10;;;;;;;;;;5070731;28;20028;-60
2021/10/19 10:58:32;;;;;;;4.32;1.88;;;;;;;;;;5070510;28;20028;-59
2021/10/19 11:00:58;;;;;;;3.03;1.90;;;;;;;;;;5069250;28;20141;-59
2021/10/19 11:03:23;;;;;;;3.80;1.80;;;;;;;;;;5067910;28;20090;-59
2021/10/19 11:06:00;;;;;;;4.45;2.30;;;;;;;;;;5067718;28;20025;-59
2021/10/19 11:08:31;;;;;;;2.53;1.95;;;;;;;;;;5073216;28;20031;-60
2021/10/19 11:11:08;;;;;;;2.60;1.90;;;;;;;;;;5069119;28;20491;-59
2021/10/19 11:13:51;;;;;;;3.53;2.33;;;;;;;;;;5066855;28;20162;-59
2021/10/19 11:16:25;;;;;;;4.95;2.72;;;;;;;;;;5067597;28;20024;-59
2021/10/19 11:18:52;;;;;;;6.47;2.50;;;;;;;;;;5069803;28;20028;-59
2021/10/19 11:21:17;;;;;;;5.20;2.67;;;;;;;;;;5068170;28;20439;-59
2021/10/19 11:23:43;;;;;;;4.60;2.63;;;;;;;;;;5069214;28;20068;-60
2021/10/19 11:26:10;;;;;;;3.25;2.40;;;;;;;;;;5068799;28;20112;-59
2021/10/19 11:28:37;;;;;;;5.35;3.00;;;;;;;;;;5064878;28;20510;-60
2021/10/19 11:31:04;;;;;;;4.50;2.65;;;;;;;;;;5074602;28;20031;-59
2021/10/19 11:33:37;;;;;;;4.20;2.80;;;;;;;;;;5068266;28;20032;-60
2021/10/19 11:36:04;;;;;;;5.82;2.83;;;;;;;;;;5065147;28;20020;-59
2021/10/19 11:38:30;;;;;;;6.97;2.72;;;;;;;;;;5065451;28;20047;-59
2021/10/19 11:41:26;;;;;;;6.03;3.03;;;;;;;;;;5073790;28;20024;-59
2021/10/19 11:43:54;;;;;;;4.40;2.65;;;;;;;;;;5052362;28;20029;-59
2021/10/19 11:46:27;;;;;;;4.78;2.63;;;;;;;;;;5066076;28;20032;-59
2021/10/19 11:48:54;;;;;;;4.30;2.45;;;;;;;;;;5067633;28;20107;-59
2021/10/19 11:51:23;;;;;;;3.45;2.38;;;;;;;;;;5063902;28;20031;-59
2021/10/19 11:53:53;;;;;;;3.47;2.30;;;;;;;;;;5064749;28;20028;-59
2021/10/19 11:56:20;;;;;;;4.07;2.47;;;;;;;;;;5062289;28;20035;-59
2021/10/19 11:59:06;;;;;;;3.88;2.47;;;;;;;;;;5067301;28;20039;-59
2021/10/19 12:01:40;;;;;;;4.97;2.50;;;;;;;;;;5071430;28;20024;-59
2021/10/19 12:04:12;;;;;;;3.65;2.20;;;;;;;;;;5065431;28;20029;-59
2021/10/19 12:06:42;;;;;;;3.78;2.50;;;;;;;;;;5061923;28;20123;-59
2021/10/19 12:09:16;;;;;;;;;;;;;;;;;;5067475;28;20028;-59
2021/10/19 12:11:47;;;;;;;5.22;2.40;;;;;;;;;;5073724;28;20024;-59
2021/10/19 12:14:13;;;;;;;4.22;2.90;;;;;;;;;;5068034;28;20460;-59
2021/10/19 12:16:38;;;;;;;3.15;2.45;;;;;;;;;;5068227;28;20098;-59
2021/10/19 12:19:03;;;;;;;4.18;2.85;;;;;;;;;;5066028;28;20378;-59
2021/10/19 12:21:30;;;;;;;3.95;3.17;;;;;;;;;;5064014;28;20405;-59
2021/10/19 12:23:57;;;;;;;5.00;2.75;;;;;;;;;;5067964;28;20058;-60
2021/10/19 12:26:25;;;;;;;4.43;2.47;;;;;;;;;;5069218;28;20035;-61
2021/10/19 12:28:53;;;;;;;4.30;2.92;;;;;;;;;;5070539;28;20314;-60
2021/10/19 12:31:20;;;;;;;5.57;3.05;;;;;;;;;;5069394;28;20183;-60
2021/10/19 12:34:02;;;;;;;7.10;2.90;;;;;;;;;;5070404;28;20052;-60
2021/10/19 12:36:35;;;;;;;5.47;2.67;;;;;;;;;;5068924;28;20082;-60
2021/10/19 12:39:06;;;;;;;4.78;2.75;;;;;;;;;;5067355;28;20110;-60
2021/10/19 12:41:34;;;;;;;5.47;2.95;;;;;;;;;;5068101;28;20029;-60
2021/10/19 12:44:01;;;;;;;5.72;3.33;;;;;;;;;;5071642;28;20052;-60
2021/10/19 12:46:28;;;;;;;6.68;3.20;;;;;;;;;;5067373;28;20101;-60
2021/10/19 12:48:55;;;;;;;7.43;3.50;;;;;;;;;;5070021;28;20124;-60
2021/10/19 12:51:22;;;;;;;5.30;3.53;;;;;;;;;;5068550;28;20028;-60
2021/10/19 12:53:51;;;;;;;5.57;3.50;;;;;;;;;;5069822;28;20116;-59
2021/10/19 12:56:18;;;;;;;5.25;3.58;;;;;;;;;;5069621;28;20028;-59
2021/10/19 12:58:44;;;;;;;5.80;3.50;;;;;;;;;;5067087;28;20032;-60
2021/10/19 13:01:10;;;;;;;7.47;4.20;;;;;;;;;;5072951;28;20035;-59
2021/10/19 13:03:36;;;;;;;7.38;3.92;;;;;;;;;;5070762;28;20496;-59
2021/10/19 13:06:03;;;;;;;8.57;4.53;;;;;;;;;;5068811;28;20051;-60
2021/10/19 13:08:37;;;;;;;9.02;4.78;;;;;;;;;;5072295;28;20039;-64
2021/10/19 13:11:03;;;;;;;8.63;5.10;;;;;;;;;;5066705;28;20063;-59
2021/10/19 13:13:29;;;;;;;8.30;5.05;;;;;;;;;;5073279;28;20031;-60
2021/10/19 13:15:55;;;;;;;12.38;6.72;;;;;;;;;;5068477;28;20483;-60
2021/10/19 13:18:21;;;;;;;12.60;7.38;;;;;;;;;;5071632;28;20059;-60
2021/10/19 13:20:47;;;;;;;13.25;7.13;;;;;;;;;;5069283;28;20024;-60
2021/10/19 13:23:12;;;;;;;11.70;7.85;;;;;;;;;;5068160;28;20116;-60
2021/10/19 13:25:38;;;;;;;9.95;6.03;;;;;;;;;;5066832;28;20103;-59
2021/10/19 13:28:04;;;;;;;11.52;6.43;;;;;;;;;;5064879;28;20051;-59
2021/10/19 13:30:29;;;;;;;9.98;6.60;;;;;;;;;;5075451;28;20433;-59
2021/10/19 13:32:55;;;;;;;11.68;6.65;;;;;;;;;;5071642;28;20034;-59
2021/10/19 13:35:25;;;;;;;7.53;5.20;;;;;;;;;;5072704;28;20115;-60
2021/10/19 13:37:50;;;;;;;;;;;;;;;;;;5068229;28;20406;-60
2021/10/19 13:40:16;;;;;;;7.45;5.25;;;;;;;;;;5069494;28;19912;-59
2021/10/19 13:42:43;;;;;;;9.25;5.72;;;;;;;;;;5069097;28;20484;-59
2021/10/19 13:45:12;;;;;;;9.35;5.70;;;;;;;;;;5069016;28;20040;-60
2021/10/19 13:47:38;;;;;;;10.68;6.70;;;;;;;;;;5070171;28;20031;-60
2021/10/19 13:50:05;;;;;;;8.05;5.07;;;;;;;;;;5071982;28;20405;-59
2021/10/19 13:52:31;;;;;;;9.02;5.32;;;;;;;;;;5069415;28;20047;-59
2021/10/19 13:54:57;;;;;;;7.85;5.05;;;;;;;;;;5068203;28;20048;-60
2021/10/19 13:57:22;;;;;;;5.93;4.05;;;;;;;;;;5074693;28;20032;-60
2021/10/19 13:59:48;;;;;;;7.30;4.50;;;;;;;;;;5068488;28;20051;-60
2021/10/19 14:02:14;;;;;;;6.60;4.18;;;;;;;;;;5069521;28;20040;-59
2021/10/19 14:04:39;;;;;;;7.68;4.75;;;;;;;;;;5069819;28;20028;-59
2021/10/19 14:07:07;;;;;;;6.95;4.75;;;;;;;;;;5067494;28;20020;-60
2021/10/19 14:09:33;;;;;;;6.13;4.60;;;;;;;;;;5068900;28;20417;-58
2021/10/19 14:11:59;;;;;;;7.43;5.32;;;;;;;;;;5072821;28;20039;-60
2021/10/19 14:14:27;;;;;;;8.43;5.78;;;;;;;;;;5068377;28;20398;-58
2021/10/19 14:16:53;;;;;;;10.27;5.07;;;;;;;;;;5066800;28;20478;-59
2021/10/19 14:19:18;;;;;;;8.73;5.40;;;;;;;;;;5067547;28;20032;-59
2021/10/19 14:21:43;;;;;;;8.57;4.85;;;;;;;;;;5069290;28;20106;-60
2021/10/19 14:24:10;;;;;;;8.05;4.97;;;;;;;;;;5064373;28;20032;-59
2021/10/19 14:26:37;;;;;;;8.10;5.18;;;;;;;;;;5069183;28;20026;-59